Time;durP1;ratioP1;P1;durP2;ratioP2;P2;SDS_P1;SDS_P2;PMS_P1;PMS_P2;Temp;Humidity;BMP_temperature;BMP_pressure;BME280_temperature;BME280_humidity;BME280_pressure;Samples;Min_cycle;Max_cycle;Signal;HPM_P1;HPM_P2
2022/03/17 00:00:37;;;;;;;22.40;14.60;;;7.70;99.90;;;;;;5013726;28;20721;-52
2022/03/17 00:03:03;;;;;;;26.83;16.45;;;7.70;99.90;;;;;;5017184;28;20041;-49
2022/03/17 00:05:29;;;;;;;26.05;17.38;;;7.70;99.90;;;;;;5015247;28;20136;-56
2022/03/17 00:07:54;;;;;;;27.65;17.75;;;7.60;99.90;;;;;;5015867;28;20036;-53
2022/03/17 00:10:20;;;;;;;30.77;18.55;;;7.60;99.90;;;;;;5018439;28;20044;-53
2022/03/17 00:12:47;;;;;;;;;;;7.60;99.90;;;;;;5018175;28;20511;-54
2022/03/17 00:15:13;;;;;;;26.50;16.27;;;7.60;99.90;;;;;;5015002;28;19909;-53
2022/03/17 00:17:41;;;;;;;31.98;17.33;;;7.50;99.90;;;;;;5016325;28;20157;-51
2022/03/17 00:20:07;;;;;;;26.80;18.75;;;7.50;99.90;;;;;;5016225;28;20706;-49
2022/03/17 00:22:33;;;;;;;27.73;18.30;;;7.50;99.90;;;;;;5016154;28;20080;-52
2022/03/17 00:24:59;;;;;;;32.70;20.25;;;7.40;99.90;;;;;;5014720;28;20026;-49
2022/03/17 00:27:25;;;;;;;28.17;18.10;;;7.40;99.90;;;;;;5015971;28;20026;-51
2022/03/17 00:29:50;;;;;;;30.17;19.60;;;7.50;99.90;;;;;;5018927;28;20026;-52
2022/03/17 00:32:17;;;;;;;;;;;7.40;99.90;;;;;;5018115;28;20240;-51
2022/03/17 00:37:26;;;;;;;29.35;19.10;;;7.40;99.90;;;;;;5017189;28;20040;-54
2022/03/17 00:39:52;;;;;;;27.02;18.17;;;7.40;99.90;;;;;;5019709;28;20022;-50
2022/03/17 00:42:19;;;;;;;29.30;19.25;;;7.40;99.90;;;;;;5016172;28;20044;-53
2022/03/17 00:44:46;;;;;;;31.83;18.83;;;7.40;99.90;;;;;;5014071;28;20057;-51
2022/03/17 00:47:12;;;;;;;29.27;19.05;;;7.40;99.90;;;;;;5014523;28;20083;-49
2022/03/17 00:49:38;;;;;;;31.25;17.73;;;7.50;99.90;;;;;;5016911;28;20061;-49
2022/03/17 00:52:09;;;;;;;34.35;21.00;;;7.50;99.90;;;;;;5017870;28;20061;-51
2022/03/17 00:54:35;;;;;;;31.17;20.25;;;7.50;99.90;;;;;;5012012;28;20514;-54
2022/03/17 00:57:01;;;;;;;;;;;7.50;99.90;;;;;;5016401;28;20061;-56
2022/03/17 00:59:26;;;;;;;34.38;19.85;;;7.50;99.90;;;;;;5015651;28;19978;-50
2022/03/17 01:01:52;;;;;;;31.95;19.05;;;7.50;99.90;;;;;;5014570;28;20025;-54
2022/03/17 01:04:17;;;;;;;32.72;20.63;;;7.50;99.90;;;;;;5014981;28;20033;-51
2022/03/17 01:06:43;;;;;;;34.92;19.55;;;7.50;99.90;;;;;;5016893;28;20052;-53
2022/03/17 01:09:08;;;;;;;35.25;19.42;;;7.50;99.90;;;;;;5013972;28;20045;-55
2022/03/17 01:11:34;;;;;;;30.05;20.10;;;7.40;99.90;;;;;;5016670;28;20462;-51
2022/03/17 01:13:59;;;;;;;36.92;20.67;;;7.40;99.90;;;;;;5018583;28;20033;-54
2022/03/17 01:16:25;;;;;;;31.15;20.25;;;7.40;99.90;;;;;;5012064;28;20033;-54
2022/03/17 01:18:50;;;;;;;33.05;22.50;;;7.40;99.90;;;;;;5014341;28;20465;-53
2022/03/17 01:21:16;;;;;;;34.67;20.85;;;7.40;99.90;;;;;;5014406;28;20136;-55
2022/03/17 01:23:41;;;;;;;32.67;21.45;;;7.40;99.90;;;;;;5013930;28;20022;-55
2022/03/17 01:26:07;;;;;;;28.98;18.42;;;7.40;99.90;;;;;;5010822;28;20022;-53
2022/03/17 01:28:32;;;;;;;32.47;20.63;;;7.40;99.90;;;;;;5015282;28;20064;-53
2022/03/17 01:30:58;;;;;;;32.97;19.48;;;7.40;99.90;;;;;;5010098;28;20053;-55
2022/03/17 01:33:24;;;;;;;28.55;18.75;;;7.40;99.90;;;;;;5017591;28;20038;-54
2022/03/17 01:35:49;;;;;;;;;;;7.30;99.90;;;;;;5009063;28;20661;-52
2022/03/17 01:38:15;;;;;;;29.90;19.52;;;7.40;99.90;;;;;;5010463;28;19913;-54
2022/03/17 01:40:40;;;;;;;34.42;20.75;;;7.30;99.90;;;;;;5012260;28;20510;-54
2022/03/17 01:43:06;;;;;;;36.42;22.65;;;7.30;99.90;;;;;;5015994;28;20509;-54
2022/03/17 01:45:31;;;;;;;;;;;7.30;99.90;;;;;;5014331;28;20026;-54
2022/03/17 01:47:57;;;;;;;31.90;20.70;;;7.30;99.90;;;;;;5012838;28;19913;-54
2022/03/17 01:50:23;;;;;;;35.72;21.13;;;7.30;99.90;;;;;;5013215;28;20387;-56
2022/03/17 01:52:49;;;;;;;32.65;22.00;;;7.30;99.90;;;;;;5012072;28;20068;-54
2022/03/17 01:55:20;;;;;;;32.63;19.45;;;7.30;99.90;;;;;;5012440;28;20030;-52
2022/03/17 01:57:46;;;;;;;40.25;21.90;;;7.30;99.90;;;;;;5008509;28;20064;-53
2022/03/17 02:00:17;;;;;;;34.22;22.45;;;7.30;99.90;;;;;;5016042;28;20030;-51
2022/03/17 02:02:43;;;;;;;36.22;21.48;;;7.30;99.90;;;;;;5009151;28;20041;-50
2022/03/17 02:05:09;;;;;;;31.45;20.08;;;7.30;99.90;;;;;;5016087;28;20025;-51
2022/03/17 02:07:35;;;;;;;33.92;20.65;;;7.20;99.90;;;;;;5010368;28;20053;-53
2022/03/17 02:10:01;;;;;;;35.63;21.58;;;7.20;99.90;;;;;;5015339;28;20411;-51
2022/03/17 02:15:11;;;;;;;36.97;20.98;;;7.20;99.90;;;;;;5016913;28;20044;-52
2022/03/17 02:17:43;;;;;;;37.75;22.23;;;7.20;99.90;;;;;;5014113;28;20133;-51
2022/03/17 02:20:11;;;;;;;40.20;24.48;;;7.10;99.90;;;;;;5014388;28;20041;-52
2022/03/17 02:22:41;;;;;;;40.13;24.38;;;7.10;99.90;;;;;;5017456;28;20030;-54
2022/03/17 02:27:52;;;;;;;34.58;23.92;;;7.00;99.90;;;;;;5016724;28;20091;-49
2022/03/17 02:30:19;;;;;;;37.33;23.05;;;7.00;99.90;;;;;;5021368;28;20399;-52
2022/03/17 02:32:46;;;;;;;32.65;21.15;;;7.00;99.90;;;;;;5021532;28;20297;-53
2022/03/17 02:35:22;;;;;;;36.03;22.63;;;7.00;99.90;;;;;;5018500;28;20025;-53
2022/03/17 02:37:48;;;;;;;36.00;21.70;;;7.00;99.90;;;;;;5021591;28;20075;-50
2022/03/17 02:40:14;;;;;;;;;;;7.10;99.90;;;;;;5019485;28;20072;-52
2022/03/17 02:42:39;;;;;;;33.60;21.15;;;7.00;99.90;;;;;;5016456;28;20379;-55
2022/03/17 02:45:06;;;;;;;;;;;7.00;99.90;;;;;;5021267;28;20410;-52
2022/03/17 02:47:32;;;;;;;34.87;20.93;;;7.00;99.90;;;;;;5016754;28;19915;-55
2022/03/17 02:49:58;;;;;;;34.05;23.17;;;7.00;99.90;;;;;;5017979;28;20030;-54
2022/03/17 02:52:26;;;;;;;35.80;22.45;;;7.00;99.90;;;;;;5020115;28;20037;-50
2022/03/17 02:54:52;;;;;;;35.50;20.38;;;7.00;99.90;;;;;;5019070;28;20117;-51
2022/03/17 02:57:19;;;;;;;33.20;21.15;;;7.00;99.90;;;;;;5020159;28;20482;-51
2022/03/17 02:59:46;;;;;;;39.08;22.98;;;7.00;99.90;;;;;;5013410;28;20049;-54
2022/03/17 03:02:13;;;;;;;38.97;23.15;;;7.00;99.90;;;;;;5018077;28;20030;-50
2022/03/17 03:04:39;;;;;;;37.92;23.40;;;7.00;99.90;;;;;;5013844;28;20061;-52
2022/03/17 03:07:06;;;;;;;39.45;22.92;;;7.00;99.90;;;;;;5011921;28;20053;-52
2022/03/17 03:09:32;;;;;;;36.88;23.35;;;7.00;99.90;;;;;;5011924;28;20512;-50
2022/03/17 03:11:57;;;;;;;;;;;6.90;99.90;;;;;;5013087;28;20041;-56
2022/03/17 03:14:23;;;;;;;37.03;22.48;;;6.90;99.90;;;;;;5011812;28;20155;-54
2022/03/17 03:16:50;;;;;;;36.60;22.33;;;6.90;99.90;;;;;;5010658;28;20029;-53
2022/03/17 03:19:16;;;;;;;42.28;24.30;;;6.90;99.90;;;;;;5009725;28;20452;-54
2022/03/17 03:21:43;;;;;;;33.47;20.27;;;6.90;99.90;;;;;;5010198;28;20117;-54
2022/03/17 03:24:10;;;;;;;40.97;23.38;;;6.90;99.90;;;;;;5012734;28;20026;-49
2022/03/17 03:26:36;;;;;;;35.60;24.70;;;6.90;99.90;;;;;;5013307;28;20030;-52
2022/03/17 03:29:04;;;;;;;39.08;22.25;;;7.00;99.90;;;;;;5022520;28;20034;-50
2022/03/17 03:31:30;;;;;;;36.25;22.98;;;7.00;99.90;;;;;;5017380;28;20357;-52
2022/03/17 03:33:55;;;;;;;39.10;23.73;;;7.00;99.90;;;;;;5009344;28;20061;-54
2022/03/17 03:39:05;;;;;;;34.45;21.67;;;7.00;99.90;;;;;;5016317;28;20094;-49
2022/03/17 03:41:31;;;;;;;36.97;22.23;;;7.00;99.90;;;;;;5011731;28;20026;-52
2022/03/17 03:43:58;;;;;;;39.88;22.77;;;7.00;99.90;;;;;;5015874;28;20064;-53
2022/03/17 03:46:23;;;;;;;36.35;22.95;;;7.00;99.90;;;;;;5012483;28;20045;-53
2022/03/17 03:48:49;;;;;;;39.85;23.13;;;7.00;99.90;;;;;;5010896;28;20359;-52
2022/03/17 03:51:14;;;;;;;38.45;21.33;;;7.00;99.90;;;;;;5013967;28;20030;-53
2022/03/17 03:56:25;;;;;;;33.35;19.95;;;7.10;99.90;;;;;;5019278;28;20045;-54
2022/03/17 03:58:50;;;;;;;37.20;22.67;;;7.10;99.90;;;;;;5012166;28;20475;-52
2022/03/17 04:01:18;;;;;;;30.80;20.15;;;7.10;99.90;;;;;;5009997;28;20057;-56
2022/03/17 04:03:44;;;;;;;40.00;22.55;;;7.00;99.90;;;;;;5012034;28;20092;-55
2022/03/17 04:06:10;;;;;;;37.47;23.65;;;7.10;99.90;;;;;;5014187;28;20037;-52
2022/03/17 04:08:35;;;;;;;39.45;23.77;;;7.10;99.90;;;;;;5012280;28;20037;-55
2022/03/17 04:11:01;;;;;;;39.00;24.55;;;7.10;99.90;;;;;;5014506;28;20043;-55
2022/03/17 04:13:27;;;;;;;36.38;23.55;;;7.10;99.90;;;;;;5014025;28;20363;-56
2022/03/17 04:15:52;;;;;;;;;;;7.10;99.90;;;;;;5011988;28;20450;-53
2022/03/17 04:18:18;;;;;;;35.03;21.77;;;7.10;99.90;;;;;;5015249;28;20253;-51
2022/03/17 04:20:44;;;;;;;38.13;22.30;;;7.00;99.90;;;;;;5008277;28;20061;-54
2022/03/17 04:23:09;;;;;;;38.20;23.38;;;7.10;99.90;;;;;;5017146;28;20022;-51
2022/03/17 04:25:35;;;;;;;37.30;23.02;;;7.00;99.90;;;;;;5016023;28;20052;-51
2022/03/17 04:28:00;;;;;;;33.53;22.70;;;7.00;99.90;;;;;;5020351;28;20041;-56
2022/03/17 04:30:26;;;;;;;44.17;24.20;;;7.00;99.90;;;;;;5016093;28;20112;-51
2022/03/17 04:32:52;;;;;;;40.90;23.80;;;7.00;99.90;;;;;;5015851;28;20372;-55
2022/03/17 04:35:17;;;;;;;37.75;22.52;;;7.00;99.90;;;;;;5015267;28;20313;-51
2022/03/17 04:37:43;;;;;;;39.70;25.25;;;7.00;99.90;;;;;;5016456;28;20050;-54
2022/03/17 04:40:09;;;;;;;39.78;24.30;;;7.00;99.90;;;;;;5014543;28;20104;-52
2022/03/17 04:42:34;;;;;;;;;;;7.10;99.90;;;;;;5016671;28;20386;-52
2022/03/17 04:45:00;;;;;;;40.65;23.55;;;7.00;99.90;;;;;;5017199;28;19988;-54
2022/03/17 04:47:25;;;;;;;43.55;24.27;;;7.00;99.90;;;;;;5014099;28;20113;-56
2022/03/17 04:49:51;;;;;;;37.97;24.13;;;7.00;99.90;;;;;;5013181;28;20402;-51
2022/03/17 04:55:01;;;;;;;35.42;22.50;;;7.00;99.90;;;;;;5009611;28;20041;-49
2022/03/17 04:57:27;;;;;;;41.60;23.27;;;7.00;99.90;;;;;;5009925;28;20033;-50
2022/03/17 04:59:52;;;;;;;;;;;7.00;99.90;;;;;;5008323;28;20188;-54
2022/03/17 05:02:17;;;;;;;90.10;47.20;;;7.00;99.90;;;;;;5014844;28;20446;-54
2022/03/17 05:04:43;;;;;;;47.50;26.85;;;7.00;99.90;;;;;;5011989;28;20483;-54
2022/03/17 05:07:09;;;;;;;39.50;25.60;;;7.00;99.90;;;;;;5010455;28;20032;-54
2022/03/17 05:09:34;;;;;;;40.22;23.75;;;7.00;99.90;;;;;;5010610;28;20033;-55
2022/03/17 05:12:00;;;;;;;45.03;26.70;;;7.00;99.90;;;;;;5014464;28;20038;-52
2022/03/17 05:14:25;;;;;;;38.25;24.63;;;7.00;99.90;;;;;;5009526;28;20049;-55
2022/03/17 05:16:51;;;;;;;37.80;23.75;;;7.00;99.90;;;;;;5007749;28;20033;-54
2022/03/17 05:19:16;;;;;;;51.67;32.00;;;7.00;99.90;;;;;;5010693;28;20398;-53
2022/03/17 05:21:41;;;;;;;57.45;35.78;;;7.00;99.90;;;;;;5011377;28;20458;-54
2022/03/17 05:24:07;;;;;;;44.50;29.00;;;7.10;99.90;;;;;;5013410;28;20487;-53
2022/03/17 05:26:33;;;;;;;43.47;28.27;;;7.10;99.90;;;;;;5011545;28;20030;-52
2022/03/17 05:28:58;;;;;;;41.55;24.65;;;7.10;99.90;;;;;;5007890;28;20125;-53
2022/03/17 05:31:24;;;;;;;45.92;27.80;;;7.10;99.90;;;;;;5009558;28;20030;-56
2022/03/17 05:33:49;;;;;;;44.33;25.80;;;7.10;99.90;;;;;;5008023;28;20446;-58
2022/03/17 05:36:15;;;;;;;;;;;7.10;99.90;;;;;;5017003;28;20037;-54
2022/03/17 05:38:40;;;;;;;40.30;26.33;;;7.10;99.90;;;;;;5005715;28;19964;-54
2022/03/17 05:41:06;;;;;;;43.78;25.27;;;7.20;99.90;;;;;;5006578;28;20217;-52
2022/03/17 05:43:31;;;;;;;40.03;25.23;;;7.20;99.90;;;;;;5012657;28;20649;-50
2022/03/17 05:45:57;;;;;;;39.53;24.80;;;7.20;99.90;;;;;;5015204;28;20514;-48
2022/03/17 05:48:23;;;;;;;40.40;26.35;;;7.20;99.90;;;;;;5013536;28;20125;-56
2022/03/17 05:50:50;;;;;;;49.08;27.08;;;7.20;99.90;;;;;;5011585;28;20117;-50
2022/03/17 05:53:15;;;;;;;42.88;27.75;;;7.20;99.90;;;;;;5014995;28;20455;-52
2022/03/17 05:55:41;;;;;;;43.65;27.48;;;7.20;99.90;;;;;;5008501;28;20040;-54
2022/03/17 05:58:06;;;;;;;42.75;25.48;;;7.20;99.90;;;;;;5011588;28;20474;-56
2022/03/17 06:00:32;;;;;;;42.00;26.63;;;7.20;99.90;;;;;;5014346;28;20033;-53
2022/03/17 06:02:59;;;;;;;44.00;27.38;;;7.20;99.90;;;;;;5017617;28;20033;-54
2022/03/17 06:05:25;;;;;;;47.35;27.77;;;7.20;99.90;;;;;;5019223;28;20403;-52
2022/03/17 06:07:53;;;;;;;42.33;26.67;;;7.20;99.90;;;;;;5016519;28;20562;-56
2022/03/17 06:10:24;;;;;;;44.50;27.48;;;7.20;99.90;;;;;;5020060;28;20029;-52
2022/03/17 06:12:51;;;;;;;40.17;25.33;;;7.20;99.90;;;;;;5014749;28;20122;-57
2022/03/17 06:15:18;;;;;;;42.10;25.30;;;7.20;99.90;;;;;;5016449;28;20037;-57
2022/03/17 06:17:49;;;;;;;42.40;27.25;;;7.20;99.90;;;;;;5017276;28;20040;-57
2022/03/17 06:20:17;;;;;;;47.08;29.33;;;7.20;99.90;;;;;;5014642;28;20571;-54
2022/03/17 06:22:49;;;;;;;43.28;26.95;;;7.30;99.90;;;;;;5017662;28;20030;-53
2022/03/17 06:25:18;;;;;;;46.67;28.88;;;7.30;99.90;;;;;;5014899;28;20069;-57
2022/03/17 06:27:46;;;;;;;46.45;27.52;;;7.20;99.90;;;;;;5015055;28;20041;-55
2022/03/17 06:30:15;;;;;;;42.17;26.98;;;7.30;99.90;;;;;;5010909;28;20076;-54
2022/03/17 06:32:41;;;;;;;44.65;26.48;;;7.30;99.90;;;;;;5013195;28;20042;-56
2022/03/17 06:35:18;;;;;;;47.17;27.63;;;7.30;99.90;;;;;;5009694;28;20045;-55
2022/03/17 06:37:45;;;;;;;42.95;26.67;;;7.40;99.90;;;;;;5012715;28;20033;-57
2022/03/17 06:40:12;;;;;;;41.88;26.83;;;7.40;99.90;;;;;;5009553;28;20482;-53
2022/03/17 06:42:37;;;;;;;44.35;27.33;;;7.40;99.90;;;;;;5016093;28;20502;-56
2022/03/17 06:45:03;;;;;;;42.42;26.80;;;7.40;99.90;;;;;;5013928;28;20063;-55
2022/03/17 06:47:29;;;;;;;;;;;7.40;99.90;;;;;;5009318;28;20071;-54
2022/03/17 06:49:54;;;;;;;44.97;26.88;;;7.40;99.90;;;;;;5017020;28;19928;-55
2022/03/17 06:52:20;;;;;;;;;;;7.50;99.90;;;;;;5017432;28;20033;-55
2022/03/17 06:54:46;;;;;;;44.72;25.45;;;7.50;99.90;;;;;;5012870;28;20013;-58
2022/03/17 06:57:19;;;;;;;40.72;25.98;;;7.40;99.90;;;;;;5012315;28;20034;-51
2022/03/17 06:59:45;;;;;;;41.75;27.77;;;7.50;99.90;;;;;;5017750;28;20495;-54
2022/03/17 07:02:11;;;;;;;43.65;26.45;;;7.50;99.90;;;;;;5016353;28;20037;-56
2022/03/17 07:04:36;;;;;;;45.78;26.73;;;7.60;99.90;;;;;;5023912;28;20029;-58
2022/03/17 07:07:02;;;;;;;41.13;26.30;;;7.60;99.90;;;;;;5016563;28;20040;-53
2022/03/17 07:09:27;;;;;;;;;;;7.60;99.90;;;;;;5019761;28;20041;-52
2022/03/17 07:11:53;;;;;;;42.80;26.20;;;7.60;99.90;;;;;;5016067;28;19909;-57
2022/03/17 07:14:18;;;;;;;47.53;28.42;;;7.60;99.90;;;;;;5013943;28;20034;-55
2022/03/17 07:16:44;;;;;;;;;;;7.70;99.90;;;;;;5011152;28;20061;-55
2022/03/17 07:19:10;;;;;;;45.33;26.85;;;7.70;99.90;;;;;;5010877;28;19921;-53
2022/03/17 07:21:35;;;;;;;44.22;26.63;;;7.70;99.90;;;;;;5018242;28;20083;-55
2022/03/17 07:24:01;;;;;;;42.17;27.73;;;7.80;99.90;;;;;;5012976;28;20607;-57
2022/03/17 07:26:27;;;;;;;;;;;7.80;99.90;;;;;;5011727;28;20030;-49
2022/03/17 07:28:54;;;;;;;43.83;28.20;;;7.80;99.90;;;;;;5013639;28;19913;-54
2022/03/17 07:31:20;;;;;;;46.78;29.00;;;7.90;99.90;;;;;;5009548;28;20034;-57
2022/03/17 07:33:48;;;;;;;;;;;7.90;99.90;;;;;;5016904;28;20574;-52
2022/03/17 07:36:13;;;;;;;;;;;8.00;99.90;;;;;;5013070;28;19913;-55
2022/03/17 07:38:38;;;;;;;41.90;26.88;;;8.00;99.90;;;;;;5017097;28;20016;-56
2022/03/17 07:41:04;;;;;;;45.03;28.48;;;8.00;99.90;;;;;;5021084;28;20022;-54
2022/03/17 07:43:29;;;;;;;45.30;28.33;;;8.10;99.90;;;;;;5019471;28;20041;-54
2022/03/17 07:45:55;;;;;;;53.35;29.63;;;8.10;99.90;;;;;;5013791;28;20431;-53
2022/03/17 07:48:21;;;;;;;49.75;31.77;;;8.20;99.90;;;;;;5019243;28;20049;-56
2022/03/17 07:50:46;;;;;;;;;;;8.20;99.90;;;;;;5014192;28;20026;-55
2022/03/17 07:53:12;;;;;;;44.20;27.35;;;8.20;99.90;;;;;;5016371;28;19915;-55
2022/03/17 07:55:37;;;;;;;48.97;30.85;;;8.20;99.90;;;;;;5016295;28;20029;-56
2022/03/17 07:58:04;;;;;;;45.33;27.42;;;8.20;99.90;;;;;;5013452;28;20036;-56
2022/03/17 08:00:30;;;;;;;45.97;31.10;;;8.30;99.90;;;;;;5016796;28;20248;-55
2022/03/17 08:02:55;;;;;;;49.33;30.90;;;8.30;99.90;;;;;;5011073;28;20022;-54
2022/03/17 08:05:21;;;;;;;;;;;8.30;99.90;;;;;;5015467;28;20109;-54
2022/03/17 08:07:46;;;;;;;43.13;27.90;;;8.30;99.90;;;;;;5023003;28;19963;-56
2022/03/17 08:10:13;;;;;;;50.00;30.60;;;8.40;99.90;;;;;;5010883;28;20108;-57
2022/03/17 08:12:39;;;;;;;47.60;29.23;;;8.40;99.90;;;;;;5012705;28;20117;-56
2022/03/17 08:15:05;;;;;;;43.15;25.95;;;8.50;99.90;;;;;;5009448;28;20120;-57
2022/03/17 08:17:32;;;;;;;45.30;29.20;;;8.50;99.90;;;;;;5011587;28;20030;-53
2022/03/17 08:19:57;;;;;;;40.40;26.98;;;8.50;99.90;;;;;;5012284;28;20478;-55
2022/03/17 08:22:23;;;;;;;42.63;28.00;;;8.50;99.90;;;;;;5008961;28;20045;-57
2022/03/17 08:24:49;;;;;;;;;;;8.70;99.90;;;;;;5012983;28;20040;-53
2022/03/17 08:27:14;;;;;;;45.85;26.98;;;8.80;99.90;;;;;;5013047;28;19909;-54
2022/03/17 08:29:40;;;;;;;51.25;31.48;;;8.80;99.90;;;;;;5009096;28;20030;-56
2022/03/17 08:32:06;;;;;;;43.97;29.63;;;9.00;99.90;;;;;;5012110;28;20217;-56
2022/03/17 08:34:35;;;;;;;45.83;28.73;;;9.10;99.90;;;;;;5008597;28;20494;-57
2022/03/17 08:37:01;;;;;;;45.88;29.48;;;9.10;99.90;;;;;;5018696;28;20091;-55
2022/03/17 08:39:26;;;;;;;;;;;9.10;99.90;;;;;;5010969;28;20030;-56
2022/03/17 08:41:53;;;;;;;45.90;29.08;;;9.20;99.90;;;;;;5009069;28;19920;-54
2022/03/17 08:44:20;;;;;;;45.00;28.70;;;9.30;99.90;;;;;;5009124;28;20030;-54
2022/03/17 08:49:30;;;;;;;47.40;30.58;;;9.50;99.90;;;;;;5010998;28;20040;-55
2022/03/17 08:51:56;;;;;;;;;;;9.50;99.90;;;;;;5016301;28;20030;-55
2022/03/17 08:54:24;;;;;;;42.97;26.23;;;9.40;99.90;;;;;;5014282;28;19917;-56
2022/03/17 08:56:51;;;;;;;44.83;27.92;;;9.40;99.90;;;;;;5010855;28;20402;-57
2022/03/17 08:59:17;;;;;;;41.10;27.58;;;9.50;99.90;;;;;;5017523;28;20471;-54
2022/03/17 09:01:42;;;;;;;;;;;9.50;99.90;;;;;;5015571;28;20080;-57
2022/03/17 09:04:08;;;;;;;43.70;28.30;;;9.70;99.90;;;;;;5015607;28;20297;-55
2022/03/17 09:06:35;;;;;;;;;;;9.80;99.90;;;;;;5015974;28;20040;-56
2022/03/17 09:09:00;;;;;;;46.10;30.73;;;10.00;99.90;;;;;;5008173;28;19913;-57
2022/03/17 09:11:26;;;;;;;44.00;28.52;;;10.10;99.90;;;;;;5012867;28;20123;-56
2022/03/17 09:13:52;;;;;;;;;;;10.10;99.90;;;;;;5008741;28;20038;-57
2022/03/17 09:16:17;;;;;;;42.90;28.75;;;10.20;99.90;;;;;;5008750;28;20011;-54
2022/03/17 09:18:43;;;;;;;44.72;29.40;;;10.20;99.90;;;;;;5008928;28;20484;-57
2022/03/17 09:21:09;;;;;;;46.22;32.10;;;10.20;99.90;;;;;;5008117;28;20022;-57
2022/03/17 09:23:35;;;;;;;;;;;10.20;99.90;;;;;;5012778;28;20471;-57
2022/03/17 09:26:00;;;;;;;47.10;28.75;;;10.40;99.50;;;;;;5009914;28;19923;-57
2022/03/17 09:28:27;;;;;;;40.95;28.73;;;10.50;99.60;;;;;;5007223;28;20026;-56
2022/03/17 09:30:57;;;;;;;41.38;29.60;;;10.70;99.30;;;;;;5009000;28;20041;-56
2022/03/17 09:33:25;;;;;;;39.58;29.25;;;10.80;99.60;;;;;;5015297;28;20057;-56
2022/03/17 09:35:52;;;;;;;44.53;29.00;;;10.80;99.20;;;;;;5011875;28;20437;-56
2022/03/17 09:38:19;;;;;;;45.55;29.73;;;10.90;99.30;;;;;;5007660;28;20494;-56
2022/03/17 09:40:45;;;;;;;;;;;10.90;99.20;;;;;;5010559;28;20029;-54
2022/03/17 09:43:18;;;;;;;40.58;27.42;;;10.90;99.20;;;;;;5007042;28;19913;-56
2022/03/17 09:45:45;;;;;;;46.08;30.30;;;10.90;99.10;;;;;;5014365;28;20483;-57
2022/03/17 09:48:12;;;;;;;41.13;29.55;;;10.80;99.00;;;;;;5008807;28;20057;-57
2022/03/17 09:50:38;;;;;;;49.72;31.00;;;10.70;99.20;;;;;;5012386;28;20116;-56
2022/03/17 09:53:05;;;;;;;49.22;34.05;;;10.60;99.30;;;;;;5009164;28;20494;-56
2022/03/17 09:55:30;;;;;;;51.10;31.67;;;10.60;99.60;;;;;;5013994;28;20378;-57
2022/03/17 09:57:57;;;;;;;;;;;10.50;99.80;;;;;;5009962;28;20533;-55
2022/03/17 10:00:23;;;;;;;47.08;30.38;;;10.50;99.90;;;;;;5010829;28;20034;-57
2022/03/17 10:02:48;;;;;;;;;;;10.40;99.90;;;;;;5016292;28;20022;-57
2022/03/17 10:05:14;;;;;;;46.92;30.15;;;10.30;99.90;;;;;;5014161;28;19909;-58
2022/03/17 10:07:39;;;;;;;;;;;10.40;99.90;;;;;;5013471;28;20044;-57
2022/03/17 10:10:06;;;;;;;42.47;28.45;;;10.40;99.90;;;;;;5011295;28;20163;-56
2022/03/17 10:12:31;;;;;;;44.58;29.80;;;10.40;99.90;;;;;;5012835;28;20034;-55
2022/03/17 10:14:58;;;;;;;;;;;10.40;99.90;;;;;;5013398;28;20048;-56
2022/03/17 10:17:34;;;;;;;37.80;26.92;;;10.40;99.90;;;;;;5015303;28;20267;-56
2022/03/17 10:20:22;;;;;;;43.55;27.05;;;10.40;99.90;;;;;;5016147;28;20026;-55
2022/03/17 10:22:56;;;;;;;37.10;27.95;;;10.40;99.90;;;;;;5015194;28;20046;-57
2022/03/17 10:25:27;;;;;;;40.85;28.10;;;10.40;99.90;;;;;;5015895;28;20041;-55
2022/03/17 10:27:56;;;;;;;43.80;28.55;;;10.30;99.90;;;;;;5015776;28;20068;-58
2022/03/17 10:30:34;;;;;;;41.03;29.33;;;10.30;99.90;;;;;;5017045;28;20030;-54
2022/03/17 10:33:16;;;;;;;41.70;27.90;;;10.30;99.90;;;;;;5014182;28;20033;-56
2022/03/17 10:35:46;;;;;;;46.78;30.08;;;10.20;99.90;;;;;;5015057;28;20072;-56
2022/03/17 10:38:17;;;;;;;39.20;27.33;;;10.20;99.90;;;;;;5009631;28;20045;-57
2022/03/17 10:40:44;;;;;;;39.40;27.17;;;10.10;99.90;;;;;;5016018;28;20026;-57
2022/03/17 10:43:17;;;;;;;40.42;28.45;;;10.10;99.90;;;;;;5010399;28;20048;-57
2022/03/17 10:45:43;;;;;;;40.33;28.33;;;10.00;99.90;;;;;;5018111;28;20376;-55
2022/03/17 10:48:08;;;;;;;;;;;9.90;99.90;;;;;;5013523;28;20040;-57
2022/03/17 10:50:52;;;;;;;41.75;27.08;;;9.90;99.90;;;;;;5010867;28;20023;-57
2022/03/17 10:53:26;;;;;;;36.72;27.02;;;9.90;99.90;;;;;;5014545;28;20418;-57
2022/03/17 10:55:52;;;;;;;41.03;26.73;;;9.80;99.90;;;;;;5013016;28;20099;-57
2022/03/17 10:58:18;;;;;;;;;;;9.80;99.90;;;;;;5013757;28;20475;-58
2022/03/17 11:00:52;;;;;;;34.65;25.95;;;9.80;99.90;;;;;;5009961;28;19913;-57
2022/03/17 11:03:19;;;;;;;45.63;29.33;;;9.80;99.90;;;;;;5009294;28;20137;-57
2022/03/17 11:05:45;;;;;;;40.78;28.77;;;9.80;99.90;;;;;;5010958;28;20041;-58
2022/03/17 11:08:11;;;;;;;;;;;9.80;99.90;;;;;;5011498;28;20486;-57
2022/03/17 11:10:40;;;;;;;46.50;27.30;;;9.70;99.90;;;;;;5015973;23;19973;-57
2022/03/17 11:13:11;;;;;;;39.80;28.13;;;9.70;99.90;;;;;;5002789;28;20061;-57
2022/03/17 11:15:38;;;;;;;42.15;28.13;;;9.70;99.90;;;;;;5008060;28;20035;-57
2022/03/17 11:18:06;;;;;;;42.20;28.30;;;9.70;99.90;;;;;;5007165;28;20022;-59
2022/03/17 11:20:33;;;;;;;38.33;26.63;;;9.60;99.90;;;;;;5008065;28;20375;-58
2022/03/17 11:23:20;;;;;;;37.72;27.52;;;9.60;99.90;;;;;;5007261;28;20030;-55
2022/03/17 11:25:52;;;;;;;44.15;28.85;;;9.60;99.90;;;;;;5007509;28;20041;-58
2022/03/17 11:28:28;;;;;;;36.28;26.58;;;9.60;99.90;;;;;;5006060;28;20416;-58
2022/03/17 11:31:00;;;;;;;38.70;28.40;;;9.50;99.90;;;;;;5005198;28;20033;-56
2022/03/17 11:33:31;;;;;;;36.83;27.83;;;9.50;99.90;;;;;;5001595;28;20402;-59
2022/03/17 11:35:59;;;;;;;38.00;28.20;;;9.50;99.90;;;;;;5003874;28;20065;-56
2022/03/17 11:38:28;;;;;;;37.13;28.05;;;9.40;99.90;;;;;;5007101;28;20036;-59
2022/03/17 11:41:15;;;;;;;42.42;28.30;;;9.50;99.90;;;;;;5006984;28;20113;-56
2022/03/17 11:43:46;;;;;;;48.67;29.02;;;9.40;99.90;;;;;;5007616;28;20048;-56
2022/03/17 11:46:33;;;;;;;46.13;30.85;;;9.40;99.90;;;;;;5003605;28;20030;-56
2022/03/17 11:49:23;;;;;;;43.17;29.58;;;9.40;99.90;;;;;;5003848;28;20261;-53
2022/03/17 11:51:52;;;;;;;42.75;30.75;;;9.30;99.90;;;;;;5006909;28;20046;-57
2022/03/17 11:54:18;;;;;;;41.45;29.40;;;9.30;99.90;;;;;;5004888;28;20030;-58
2022/03/17 11:56:45;;;;;;;;;;;9.30;99.90;;;;;;5007045;28;20072;-58
2022/03/17 11:59:14;;;;;;;49.75;29.85;;;9.20;99.90;;;;;;5006204;28;20295;-58
2022/03/17 12:01:42;;;;;;;40.33;28.88;;;9.20;99.90;;;;;;5006717;28;20437;-57
2022/03/17 12:04:19;;;;;;;45.38;30.98;;;9.20;99.90;;;;;;5005147;28;20498;-55
2022/03/17 12:06:55;;;;;;;41.00;30.77;;;9.10;99.90;;;;;;5005734;28;20474;-58
2022/03/17 12:09:32;;;;;;;46.20;30.65;;;9.10;99.90;;;;;;5005310;28;20453;-58
2022/03/17 12:11:57;;;;;;;42.65;29.73;;;9.10;99.90;;;;;;5007080;28;20053;-57
2022/03/17 12:14:24;;;;;;;;;;;9.10;99.90;;;;;;5005243;28;20065;-58
2022/03/17 12:16:55;;;;;;;42.28;28.80;;;9.10;99.90;;;;;;5006523;28;19967;-56
2022/03/17 12:19:38;;;;;;;44.10;30.45;;;9.00;99.90;;;;;;5004306;28;20581;-57
2022/03/17 12:22:05;;;;;;;45.53;30.48;;;9.00;99.90;;;;;;5004679;28;20038;-57
2022/03/17 12:24:48;;;;;;;44.10;32.03;;;9.00;99.90;;;;;;5004939;28;20064;-56
2022/03/17 12:27:36;;;;;;;38.63;28.63;;;9.00;99.90;;;;;;5005841;28;20022;-58
2022/03/17 12:30:02;;;;;;;38.65;28.00;;;8.90;99.90;;;;;;5004893;28;20541;-57
2022/03/17 12:32:28;;;;;;;;;;;8.90;99.90;;;;;;5005032;28;20037;-56
2022/03/17 12:34:55;;;;;;;36.38;25.45;;;8.90;99.90;;;;;;5005579;28;19993;-58
2022/03/17 12:37:24;;;;;;;32.92;23.85;;;8.90;99.90;;;;;;5002627;28;20034;-57
2022/03/17 12:39:54;;;;;;;38.53;24.10;;;8.90;99.90;;;;;;5004942;28;20033;-59
2022/03/17 12:42:21;;;;;;;34.47;23.08;;;8.80;99.90;;;;;;5004992;28;20512;-58
2022/03/17 12:45:07;;;;;;;22.13;18.25;;;8.80;99.90;;;;;;5007281;28;20034;-58
2022/03/17 12:47:36;;;;;;;23.70;16.60;;;8.70;99.90;;;;;;5005520;28;20034;-60
2022/03/17 12:50:07;;;;;;;23.40;16.92;;;8.70;99.90;;;;;;5005758;28;20117;-60
2022/03/17 12:52:34;;;;;;;20.13;14.07;;;8.60;99.90;;;;;;5002685;28;20344;-56
2022/03/17 12:55:02;;;;;;;18.92;13.55;;;8.50;99.90;;;;;;5005439;28;20045;-59
2022/03/17 12:57:30;;;;;;;15.45;11.38;;;8.50;99.90;;;;;;5005892;28;20034;-56
2022/03/17 12:59:56;;;;;;;18.13;13.00;;;8.50;99.90;;;;;;5006176;28;20030;-59
2022/03/17 13:02:23;;;;;;;24.92;13.32;;;8.50;99.90;;;;;;5004389;28;20525;-55
2022/03/17 13:04:50;;;;;;;24.88;13.60;;;8.50;99.90;;;;;;5005427;28;20029;-58
2022/03/17 13:07:17;;;;;;;20.98;12.88;;;8.60;99.90;;;;;;5004374;28;20029;-59